Time;durP1;ratioP1;P1;durP2;ratioP2;P2;SDS_P1;SDS_P2;PMS_P1;PMS_P2;Temp;Humidity;BMP_temperature;BMP_pressure;BME280_temperature;BME280_humidity;BME280_pressure;Samples;Min_cycle;Max_cycle;Signal;HPM_P1;HPM_P2
2022/11/21 00:00:15;;;;;;;;;4.67;4.67;;;;;-147.17;100.00;-15917.19;5054648;28;51541;-58
2022/11/21 00:02:40;;;;;;;;;6.25;3.25;;;;;-147.17;100.00;-15917.19;5066561;27;51046;-59
2022/11/21 00:05:05;;;;;;;;;3.67;2.67;;;;;-147.17;100.00;-15917.19;5073028;27;50879;-58
2022/11/21 00:07:31;;;;;;;;;8.75;7.00;;;;;-147.17;100.00;-15917.19;5071325;27;52436;-58
2022/11/21 00:09:56;;;;;;;;;8.00;5.75;;;;;-147.17;100.00;-15917.19;5057431;28;51105;-58
2022/11/21 00:12:21;;;;;;;;;6.75;4.00;;;;;-147.17;100.00;-15917.19;5068458;28;51119;-58
2022/11/21 00:14:47;;;;;;;;;7.50;7.00;;;;;-147.17;100.00;-15917.19;5062452;28;51373;-58
2022/11/21 00:17:12;;;;;;;;;9.00;9.00;;;;;-147.17;100.00;-15917.19;5071532;28;57145;-57
2022/11/21 00:19:37;;;;;;;;;5.50;3.50;;;;;-147.17;100.00;-15917.19;5073611;27;50966;-57
2022/11/21 00:22:03;;;;;;;;;14.25;9.75;;;;;-147.17;100.00;-15917.19;5073365;27;51251;-57
2022/11/21 00:24:28;;;;;;;;;14.25;12.25;;;;;-147.17;100.00;-15917.19;5071171;27;51069;-60
2022/11/21 00:26:53;;;;;;;;;6.75;3.00;;;;;-147.17;100.00;-15917.19;5071077;28;52710;-58
2022/11/21 00:29:19;;;;;;;;;4.00;3.00;;;;;-147.17;100.00;-15917.19;5073226;27;50969;-57
2022/11/21 00:31:45;;;;;;;;;7.75;3.75;;;;;-147.17;100.00;-15917.19;5071394;28;51339;-59
2022/11/21 00:34:10;;;;;;;;;3.33;3.00;;;;;-147.17;100.00;-15917.19;5063823;28;51231;-59
2022/11/21 00:36:35;;;;;;;;;5.25;4.25;;;;;-147.17;100.00;-15917.19;5052658;28;52811;-58
2022/11/21 00:39:01;;;;;;;;;4.00;3.25;;;;;-147.17;100.00;-15917.19;5063754;28;51021;-59
2022/11/21 00:41:26;;;;;;;;;2.33;2.00;;;;;-147.17;100.00;-15917.19;5073202;27;51076;-57
2022/11/21 00:43:51;;;;;;;;;2.00;2.00;;;;;-147.17;100.00;-15917.19;5064832;27;51421;-57
2022/11/21 00:46:16;;;;;;;;;3.00;3.00;;;;;-147.17;100.00;-15917.19;5046925;28;52719;-57
2022/11/21 00:48:42;;;;;;;;;5.75;4.75;;;;;-147.17;100.00;-15917.19;5069026;27;51131;-58
2022/11/21 00:51:07;;;;;;;;;3.00;2.50;;;;;-147.17;100.00;-15917.19;5058387;27;51037;-58
2022/11/21 00:53:33;;;;;;;;;6.00;2.33;;;;;-147.17;100.00;-15917.19;5065563;28;51997;-58
2022/11/21 00:55:58;;;;;;;;;4.00;3.67;;;;;-147.17;100.00;-15917.19;5073298;28;52050;-58
2022/11/21 00:58:24;;;;;;;;;13.50;10.00;;;;;-147.17;100.00;-15917.19;5060965;27;51009;-58
2022/11/21 01:00:49;;;;;;;;;3.67;2.00;;;;;-147.17;100.00;-15917.19;5063435;27;51059;-58
2022/11/21 01:03:15;;;;;;;;;2.00;2.00;;;;;-147.17;100.00;-15917.19;5061688;28;50899;-59
2022/11/21 01:05:40;;;;;;;;;18.75;14.00;;;;;-147.17;100.00;-15917.19;5058569;27;50938;-59
2022/11/21 01:08:05;;;;;;;;;3.67;2.33;;;;;-147.17;100.00;-15917.19;5053793;28;50939;-59
2022/11/21 01:10:31;;;;;;;;;3.33;2.67;;;;;-147.17;100.00;-15917.19;5072981;28;51240;-58
2022/11/21 01:12:56;;;;;;;;;4.00;4.00;;;;;-147.17;100.00;-15917.19;5053414;28;51429;-59
2022/11/21 01:15:21;;;;;;;;;2.00;1.00;;;;;-147.17;100.00;-15917.19;5064599;28;51107;-59
2022/11/21 01:17:47;;;;;;;;;12.25;7.00;;;;;-147.17;100.00;-15917.19;5057799;27;50992;-59
2022/11/21 01:20:12;;;;;;;;;3.00;3.00;;;;;-147.17;100.00;-15917.19;5073021;28;50899;-58
2022/11/21 01:22:37;;;;;;;;;4.33;3.67;;;;;-147.17;100.00;-15917.19;5072110;27;50927;-58
2022/11/21 01:25:03;;;;;;;;;4.00;3.67;;;;;-147.17;100.00;-15917.19;5060609;27;51894;-58
2022/11/21 01:27:28;;;;;;;;;4.00;3.33;;;;;-147.17;100.00;-15917.19;5052181;28;51058;-59
2022/11/21 01:29:54;;;;;;;;;5.25;4.00;;;;;-147.17;100.00;-15917.19;5057474;28;51152;-59
2022/11/21 01:32:19;;;;;;;;;4.33;3.00;;;;;-147.17;100.00;-15917.19;5052485;28;51158;-58
2022/11/21 01:34:44;;;;;;;;;4.67;2.67;;;;;-147.17;100.00;-15917.19;5063607;28;57736;-59
2022/11/21 01:37:10;;;;;;;;;3.00;3.00;;;;;-147.17;100.00;-15917.19;5050750;28;51227;-58
2022/11/21 01:39:35;;;;;;;;;7.00;3.75;;;;;-147.17;100.00;-15917.19;5066307;28;51151;-58
2022/11/21 01:42:00;;;;;;;;;15.25;12.25;;;;;-147.17;100.00;-15917.19;5069481;27;51089;-58
2022/11/21 01:44:46;;;;;;;;;6.25;5.75;;;;;-147.17;100.00;-15917.19;5072544;28;53106;-58
2022/11/21 01:47:12;;;;;;;;;6.50;5.00;;;;;-147.17;100.00;-15917.19;5072565;27;50971;-57
2022/11/21 01:49:39;;;;;;;;;3.00;3.00;;;;;-147.17;100.00;-15917.19;5071884;27;51105;-57
2022/11/21 01:52:31;;;;;;;;;6.75;5.25;;;;;-147.17;100.00;-15917.19;5069093;27;51204;-59
2022/11/21 01:55:01;;;;;;;;;4.00;2.25;;;;;-147.17;100.00;-15917.19;5063906;27;52327;-58
2022/11/21 01:57:35;;;;;;;;;8.75;6.75;;;;;-147.17;100.00;-15917.19;5052120;28;50971;-59
2022/11/21 02:00:22;;;;;;;;;3.50;3.00;;;;;-147.17;100.00;-15917.19;5057368;28;51218;-58
2022/11/21 02:02:53;;;;;;;;;6.00;4.00;;;;;-147.17;100.00;-15917.19;5067314;28;52170;-58
2022/11/21 02:05:23;;;;;;;;;3.25;3.25;;;;;-147.17;100.00;-15917.19;5072123;27;51861;-58
2022/11/21 02:07:53;;;;;;;;;3.33;3.33;;;;;-147.17;100.00;-15917.19;5070889;27;51258;-58
2022/11/21 02:10:18;;;;;;;;;5.00;4.00;;;;;-147.17;100.00;-15917.19;5071016;27;51136;-57
2022/11/21 02:12:52;;;;;;;;;3.67;2.33;;;;;-147.17;100.00;-15917.19;5065715;27;51004;-58
2022/11/21 02:15:21;;;;;;;;;2.25;2.00;;;;;-147.17;100.00;-15917.19;5051675;28;52235;-57
2022/11/21 02:17:47;;;;;;;;;4.00;3.25;;;;;-147.17;100.00;-15917.19;5051853;28;51113;-57
2022/11/21 02:20:16;;;;;;;;;1.67;1.67;;;;;-147.17;100.00;-15917.19;5052070;28;51062;-58
2022/11/21 02:22:48;;;;;;;;;2.00;1.67;;;;;-147.17;100.00;-15917.19;5065394;28;51239;-58
2022/11/21 02:25:20;;;;;;;;;2.33;2.33;;;;;-147.17;100.00;-15917.19;5068312;28;53209;-58
2022/11/21 02:27:48;;;;;;;;;3.33;3.33;;;;;-147.17;100.00;-15917.19;5072333;28;50886;-58
2022/11/21 02:30:15;;;;;;;;;5.33;3.67;;;;;-147.17;100.00;-15917.19;5069576;27;51092;-58
2022/11/21 02:32:46;;;;;;;;;5.00;4.00;;;;;-147.17;100.00;-15917.19;5064143;27;51163;-58
2022/11/21 02:35:14;;;;;;;;;3.00;2.00;;;;;-147.17;100.00;-15917.19;5070538;27;51913;-57
2022/11/21 02:37:40;;;;;;;;;2.67;2.33;;;;;-147.17;100.00;-15917.19;5062067;28;51051;-57
2022/11/21 02:40:11;;;;;;;;;3.00;2.00;;;;;-147.17;100.00;-15917.19;5071294;27;51219;-57
2022/11/21 02:43:06;;;;;;;;;4.25;3.75;;;;;-147.17;100.00;-15917.19;5072952;27;50925;-56
2022/11/21 02:45:39;;;;;;;;;4.50;3.00;;;;;-147.17;100.00;-15917.19;5069534;28;51922;-57
2022/11/21 02:48:05;;;;;;;;;5.50;4.00;;;;;-147.17;100.00;-15917.19;5062707;27;50863;-58
2022/11/21 02:50:33;;;;;;;;;4.50;4.50;;;;;-147.17;100.00;-15917.19;5061803;28;51210;-58
2022/11/21 02:52:59;;;;;;;;;2.00;2.00;;;;;-147.17;100.00;-15917.19;5068147;28;51142;-58
2022/11/21 02:55:25;;;;;;;;;3.75;3.00;;;;;-147.17;100.00;-15917.19;5064140;28;51063;-57
2022/11/21 02:57:51;;;;;;;;;4.75;2.75;;;;;-147.17;100.00;-15917.19;5064033;27;51593;-58
2022/11/21 03:00:17;;;;;;;;;4.00;3.00;;;;;-147.17;100.00;-15917.19;5074302;27;51051;-58
2022/11/21 03:02:43;;;;;;;;;2.75;2.00;;;;;-147.17;100.00;-15917.19;5062430;27;51150;-58
2022/11/21 03:05:10;;;;;;;;;3.00;3.00;;;;;-147.17;100.00;-15917.19;5055987;28;51940;-58
2022/11/21 03:07:36;;;;;;;;;3.00;3.00;;;;;-147.17;100.00;-15917.19;5060416;27;51173;-58
2022/11/21 03:10:02;;;;;;;;;2.33;2.33;;;;;-147.17;100.00;-15917.19;5072631;27;51017;-60
2022/11/21 03:12:27;;;;;;;;;3.00;3.00;;;;;-147.17;100.00;-15917.19;5065182;28;51305;-59
2022/11/21 03:14:52;;;;;;;;;4.00;3.25;;;;;-147.17;100.00;-15917.19;5054523;28;51808;-59
2022/11/21 03:17:18;;;;;;;;;2.67;2.00;;;;;-147.17;100.00;-15917.19;5057049;28;52076;-59
2022/11/21 03:19:43;;;;;;;;;3.33;3.00;;;;;-147.17;100.00;-15917.19;5055074;28;51394;-58
2022/11/21 03:22:12;;;;;;;;;3.00;3.00;;;;;-147.17;100.00;-15917.19;5062823;27;51122;-58
2022/11/21 03:24:37;;;;;;;;;7.00;6.00;;;;;-147.17;100.00;-15917.19;5054733;28;52188;-58
2022/11/21 03:27:02;;;;;;;;;5.50;5.50;;;;;-147.17;100.00;-15917.19;5068335;27;51188;-58
2022/11/21 03:29:28;;;;;;;;;5.33;3.00;;;;;-147.17;100.00;-15917.19;5074011;27;51166;-58
2022/11/21 03:31:53;;;;;;;;;3.25;3.25;;;;;-147.17;100.00;-15917.19;5070610;28;51114;-59
2022/11/21 03:34:18;;;;;;;;;5.25;3.50;;;;;-147.17;100.00;-15917.19;5054622;28;52769;-58
2022/11/21 03:36:44;;;;;;;;;6.25;3.00;;;;;-147.17;100.00;-15917.19;5054179;28;50932;-58
2022/11/21 03:39:09;;;;;;;;;3.00;3.00;;;;;-147.17;100.00;-15917.19;5061007;28;51310;-58
2022/11/21 03:41:34;;;;;;;;;3.00;3.00;;;;;-147.17;100.00;-15917.19;5072077;27;51314;-58
2022/11/21 03:44:09;;;;;;;;;3.50;3.00;;;;;-147.17;100.00;-15917.19;5061290;27;51602;-57
2022/11/21 03:46:43;;;;;;;;;2.00;2.00;;;;;-147.17;100.00;-15917.19;5071641;28;51136;-58
2022/11/21 03:49:09;;;;;;;;;4.00;3.33;;;;;-147.17;100.00;-15917.19;5063688;27;51028;-58
2022/11/21 03:51:36;;;;;;;;;3.33;3.00;;;;;-147.17;100.00;-15917.19;5063637;28;51145;-58
2022/11/21 03:54:01;;;;;;;;;4.00;4.00;;;;;-147.17;100.00;-15917.19;5071820;27;53065;-59
2022/11/21 03:56:28;;;;;;;;;2.00;2.00;;;;;-147.17;100.00;-15917.19;5059067;27;50934;-57
2022/11/21 03:58:53;;;;;;;;;8.00;5.25;;;;;-147.17;100.00;-15917.19;5056833;28;51316;-57
2022/11/21 04:01:19;;;;;;;;;6.67;5.67;;;;;-147.17;100.00;-15917.19;5061088;28;51222;-59
2022/11/21 04:03:45;;;;;;;;;3.00;3.00;;;;;-147.17;100.00;-15917.19;5073237;28;51119;-57
2022/11/21 04:06:12;;;;;;;;;4.00;4.00;;;;;-147.17;100.00;-15917.19;5057259;27;51139;-58
2022/11/21 04:08:38;;;;;;;;;5.75;4.00;;;;;-147.17;100.00;-15917.19;5066438;27;51155;-58
2022/11/21 04:11:04;;;;;;;;;4.00;3.50;;;;;-147.17;100.00;-15917.19;5074069;28;51990;-59
2022/11/21 04:13:29;;;;;;;;;5.75;4.00;;;;;-147.17;100.00;-15917.19;5063320;27;51798;-57
2022/11/21 04:15:54;;;;;;;;;6.25;3.00;;;;;-147.17;100.00;-15917.19;5073078;28;50959;-57
2022/11/21 04:18:20;;;;;;;;;4.00;2.50;;;;;-147.17;100.00;-15917.19;5067897;27;51541;-58
2022/11/21 04:20:46;;;;;;;;;7.00;6.00;;;;;-147.17;100.00;-15917.19;5054940;28;51145;-58
2022/11/21 04:23:12;;;;;;;;;6.00;4.00;;;;;-147.17;100.00;-15917.19;5053201;28;52847;-57
2022/11/21 04:25:37;;;;;;;;;6.00;3.50;;;;;-147.17;100.00;-15917.19;5067171;28;50997;-58
2022/11/21 04:28:04;;;;;;;;;9.50;6.50;;;;;-147.17;100.00;-15917.19;5061628;28;51542;-58
2022/11/21 04:30:31;;;;;;;;;7.50;7.00;;;;;-147.17;100.00;-15917.19;5073996;28;51197;-58
2022/11/21 04:32:56;;;;;;;;;5.75;5.50;;;;;-147.17;100.00;-15917.19;5073103;27;51170;-58
2022/11/21 04:35:23;;;;;;;;;8.00;6.25;;;;;-147.17;100.00;-15917.19;5055945;27;51253;-59
2022/11/21 04:37:49;;;;;;;;;7.75;5.00;;;;;-147.17;100.00;-15917.19;5065913;27;51017;-57
2022/11/21 04:40:15;;;;;;;;;8.00;6.50;;;;;-147.17;100.00;-15917.19;5069925;27;51161;-59
2022/11/21 04:42:45;;;;;;;;;7.25;6.75;;;;;-147.17;100.00;-15917.19;5060572;28;51876;-59
2022/11/21 04:45:12;;;;;;;;;7.00;5.75;;;;;-147.17;100.00;-15917.19;5069207;28;51137;-59
2022/11/21 04:47:39;;;;;;;;;9.25;7.00;;;;;-147.17;100.00;-15917.19;5061237;28;50946;-58
2022/11/21 04:50:05;;;;;;;;;6.25;4.50;;;;;-147.17;100.00;-15917.19;5064023;27;50981;-57
2022/11/21 04:52:31;;;;;;;;;8.75;7.00;;;;;-147.17;100.00;-15917.19;5057780;28;51749;-58
2022/11/21 04:54:56;;;;;;;;;9.00;7.50;;;;;-147.17;100.00;-15917.19;5065026;28;51135;-58
2022/11/21 04:57:22;;;;;;;;;8.50;7.25;;;;;-147.17;100.00;-15917.19;5055250;28;54074;-59
2022/11/21 04:59:47;;;;;;;;;7.00;5.50;;;;;-147.17;100.00;-15917.19;5056017;27;51037;-59
2022/11/21 05:02:12;;;;;;;;;7.25;4.00;;;;;-147.17;100.00;-15917.19;5069631;28;51062;-59
2022/11/21 05:04:38;;;;;;;;;5.00;4.00;;;;;-147.17;100.00;-15917.19;5069952;27;50840;-58
2022/11/21 05:07:04;;;;;;;;;8.00;7.50;;;;;-147.17;100.00;-15917.19;5062636;27;51109;-57
2022/11/21 05:09:29;;;;;;;;;6.50;6.00;;;;;-147.17;100.00;-15917.19;5072789;27;51386;-60
2022/11/21 05:14:38;;;;;;;;;8.25;7.25;;;;;-147.17;100.00;-15917.19;5064843;28;51123;-58
2022/11/21 05:17:03;;;;;;;;;8.25;7.75;;;;;-147.17;100.00;-15917.19;5070342;27;51206;-57
2022/11/21 05:19:29;;;;;;;;;3.25;2.25;;;;;-147.17;100.00;-15917.19;5063540;28;51486;-58
2022/11/21 05:21:55;;;;;;;;;8.50;8.50;;;;;-147.17;100.00;-15917.19;5056060;28;59147;-58
2022/11/21 05:24:20;;;;;;;;;7.50;6.75;;;;;-147.17;100.00;-15917.19;5066873;28;51052;-59
2022/11/21 05:26:46;;;;;;;;;8.25;7.50;;;;;-147.17;100.00;-15917.19;5072881;28;51249;-58
2022/11/21 05:29:11;;;;;;;;;8.25;7.00;;;;;-147.17;100.00;-15917.19;5070765;28;51415;-58
2022/11/21 05:31:37;;;;;;;;;11.50;8.50;;;;;-147.17;100.00;-15917.19;5072744;27;51166;-59
2022/11/21 05:34:02;;;;;;;;;12.00;8.25;;;;;-147.17;100.00;-15917.19;5064057;27;51075;-57
2022/11/21 05:36:28;;;;;;;;;14.00;9.75;;;;;-147.17;100.00;-15917.19;5052102;28;51074;-58
2022/11/21 05:38:53;;;;;;;;;9.00;8.00;;;;;-147.17;100.00;-15917.19;5054968;27;51261;-59
2022/11/21 05:41:19;;;;;;;;;9.25;8.50;;;;;-147.17;100.00;-15917.19;5065339;28;51828;-59
2022/11/21 05:43:44;;;;;;;;;8.50;7.25;;;;;-147.17;100.00;-15917.19;5071784;27;50950;-58
2022/11/21 05:46:11;;;;;;;;;7.25;6.75;;;;;-147.17;100.00;-15917.19;5072663;27;50860;-59
2022/11/21 05:48:36;;;;;;;;;9.25;8.50;;;;;-147.17;100.00;-15917.19;5064601;27;51341;-58
2022/11/21 05:51:03;;;;;;;;;7.00;6.75;;;;;-147.17;100.00;-15917.19;5064790;28;52872;-58
2022/11/21 05:53:29;;;;;;;;;8.00;6.75;;;;;-147.17;100.00;-15917.19;5070464;28;51033;-59
2022/11/21 05:55:54;;;;;;;;;8.50;8.50;;;;;-147.17;100.00;-15917.19;5072482;28;50994;-58
2022/11/21 05:58:19;;;;;;;;;6.25;6.25;;;;;-147.17;100.00;-15917.19;5070914;27;51139;-58
2022/11/21 06:00:45;;;;;;;;;7.25;6.50;;;;;-147.17;100.00;-15917.19;5066235;28;52091;-59
2022/11/21 06:03:26;;;;;;;;;7.00;6.25;;;;;-147.17;100.00;-15917.19;5064591;27;51237;-58
2022/11/21 06:06:06;;;;;;;;;6.00;5.00;;;;;-147.17;100.00;-15917.19;5072449;27;51107;-58
2022/11/21 06:08:40;;;;;;;;;8.50;7.75;;;;;-147.17;100.00;-15917.19;5072513;27;51330;-58
2022/11/21 06:11:08;;;;;;;;;6.25;6.25;;;;;-147.17;100.00;-15917.19;5070419;27;51990;-58
2022/11/21 06:13:34;;;;;;;;;8.25;7.25;;;;;-147.17;100.00;-15917.19;5071963;28;51227;-57
2022/11/21 06:16:05;;;;;;;;;11.25;6.75;;;;;-147.17;100.00;-15917.19;5061168;27;51101;-58
2022/11/21 06:18:33;;;;;;;;;8.75;8.25;;;;;-147.17;100.00;-15917.19;5061604;27;51132;-58
2022/11/21 06:21:19;;;;;;;;;10.75;8.00;;;;;-147.17;100.00;-15917.19;5055238;28;51908;-60
2022/11/21 06:23:45;;;;;;;;;7.00;6.75;;;;;-147.17;100.00;-15917.19;5059776;28;51073;-58
2022/11/21 06:26:14;;;;;;;;;8.50;8.00;;;;;-147.17;100.00;-15917.19;5070026;27;51099;-58
2022/11/21 06:28:40;;;;;;;;;7.00;7.00;;;;;-147.17;100.00;-15917.19;5058749;27;51205;-58
2022/11/21 06:31:19;;;;;;;;;7.50;7.00;;;;;-147.17;100.00;-15917.19;5059817;28;51496;-57
2022/11/21 06:33:46;;;;;;;;;7.50;6.25;;;;;-147.17;100.00;-15917.19;5066132;28;51153;-59
2022/11/21 06:36:16;;;;;;;;;8.00;7.75;;;;;-147.17;100.00;-15917.19;5054893;28;51174;-58
2022/11/21 06:38:42;;;;;;;;;11.00;9.00;;;;;-147.17;100.00;-15917.19;5072988;28;51253;-57
2022/11/21 06:41:17;;;;;;;;;9.00;9.00;;;;;-147.17;100.00;-15917.19;5047206;28;51461;-59
2022/11/21 06:43:43;;;;;;;;;10.25;8.25;;;;;-147.17;100.00;-15917.19;5070822;27;51060;-58
2022/11/21 06:46:09;;;;;;;;;13.00;11.75;;;;;-147.17;100.00;-15917.19;5053538;28;51222;-58
2022/11/21 06:48:36;;;;;;;;;12.25;11.00;;;;;-147.17;100.00;-15917.19;5057217;28;51315;-58
2022/11/21 06:51:07;;;;;;;;;18.25;13.50;;;;;-147.17;100.00;-15917.19;5070121;28;51859;-58
2022/11/21 06:53:33;;;;;;;;;15.25;13.50;;;;;-147.17;100.00;-15917.19;5070342;27;51184;-58
2022/11/21 06:56:03;;;;;;;;;12.50;10.75;;;;;-147.17;100.00;-15917.19;5054529;28;51234;-57
2022/11/21 06:58:29;;;;;;;;;15.00;13.25;;;;;-147.17;100.00;-15917.19;5055791;28;51268;-57
2022/11/21 07:00:55;;;;;;;;;10.00;9.25;;;;;-147.17;100.00;-15917.19;5065102;28;52729;-58
2022/11/21 07:03:21;;;;;;;;;10.25;9.50;;;;;-147.17;100.00;-15917.19;5060092;27;51041;-58
2022/11/21 07:05:48;;;;;;;;;14.25;12.25;;;;;-147.17;100.00;-15917.19;5064134;27;51129;-58
2022/11/21 07:08:13;;;;;;;;;12.75;12.75;;;;;-147.17;100.00;-15917.19;5057357;28;51028;-59
2022/11/21 07:10:39;;;;;;;;;18.25;14.00;;;;;-147.17;100.00;-15917.19;5072718;27;51243;-60
2022/11/21 07:13:23;;;;;;;;;14.50;12.75;;;;;-147.17;100.00;-15917.19;5073002;27;52722;-59
2022/11/21 07:15:51;;;;;;;;;15.75;14.25;;;;;-147.17;100.00;-15917.19;5068971;27;51029;-59
2022/11/21 07:18:18;;;;;;;;;13.75;12.00;;;;;-147.17;100.00;-15917.19;5066086;27;51012;-59
2022/11/21 07:20:44;;;;;;;;;19.75;13.75;;;;;-147.17;100.00;-15917.19;5055952;27;52921;-59
2022/11/21 07:23:10;;;;;;;;;16.50;14.00;;;;;-147.17;100.00;-15917.19;5054376;28;51411;-60
2022/11/21 07:25:35;;;;;;;;;20.75;18.50;;;;;-147.17;100.00;-15917.19;5063969;27;51021;-59
2022/11/21 07:28:01;;;;;;;;;9.50;8.00;;;;;-147.17;100.00;-15917.19;5061748;27;51258;-58
2022/11/21 07:30:28;;;;;;;;;14.75;14.00;;;;;-147.17;100.00;-15917.19;5054431;28;51165;-58
2022/11/21 07:32:57;;;;;;;;;15.25;13.00;;;;;-147.17;100.00;-15917.19;5053823;28;51073;-59
2022/11/21 07:35:23;;;;;;;;;15.50;14.25;;;;;-147.17;100.00;-15917.19;5064946;28;51158;-59
2022/11/21 07:37:49;;;;;;;;;16.50;13.75;;;;;-147.17;100.00;-15917.19;5046571;28;51330;-58
2022/11/21 07:40:15;;;;;;;;;11.00;8.75;;;;;-147.17;100.00;-15917.19;5071864;28;51157;-59
2022/11/21 07:42:40;;;;;;;;;17.75;14.75;;;;;-147.17;100.00;-15917.19;5072754;28;51339;-60
2022/11/21 07:45:06;;;;;;;;;15.50;14.50;;;;;-147.17;100.00;-15917.19;5073860;27;51154;-59
2022/11/21 07:47:31;;;;;;;;;13.25;12.25;;;;;-147.17;100.00;-15917.19;5071195;28;51101;-59
2022/11/21 07:49:56;;;;;;;;;15.75;15.75;;;;;-147.17;100.00;-15917.19;5064732;27;51781;-59
2022/11/21 07:52:22;;;;;;;;;15.00;13.00;;;;;-147.17;100.00;-15917.19;5061011;28;51193;-58
2022/11/21 07:54:47;;;;;;;;;17.25;13.00;;;;;-147.17;100.00;-15917.19;5053370;28;51105;-59
2022/11/21 07:57:12;;;;;;;;;22.25;17.75;;;;;-147.17;100.00;-15917.19;5053642;28;50978;-60
2022/11/21 07:59:38;;;;;;;;;18.50;17.50;;;;;-147.17;100.00;-15917.19;5056136;28;51919;-60
2022/11/21 08:02:03;;;;;;;;;18.50;17.00;;;;;-147.17;100.00;-15917.19;5061329;28;57099;-59
2022/11/21 08:04:28;;;;;;;;;1.25;1.00;;;;;-147.17;100.00;-15917.19;5066256;27;51504;-60
2022/11/21 08:06:54;;;;;;;;;24.00;18.00;;;;;-147.17;100.00;-15917.19;5072876;27;51179;-59
2022/11/21 08:09:19;;;;;;;;;23.00;19.50;;;;;-147.17;100.00;-15917.19;5059300;28;52133;-59
2022/11/21 08:11:44;;;;;;;;;17.50;16.00;;;;;-147.17;100.00;-15917.19;5069231;28;51076;-59
2022/11/21 08:14:10;;;;;;;;;18.00;16.50;;;;;-147.17;100.00;-15917.19;5070387;28;51345;-58
2022/11/21 08:16:35;;;;;;;;;22.00;19.00;;;;;-147.17;100.00;-15917.19;5059295;28;51371;-58
2022/11/21 08:19:01;;;;;;;;;19.00;17.50;;;;;-147.17;100.00;-15917.19;5065612;28;53160;-58
2022/11/21 08:21:26;;;;;;;;;23.75;19.00;;;;;-147.17;100.00;-15917.19;5063236;27;52852;-58
2022/11/21 08:23:53;;;;;;;;;21.00;17.50;;;;;-147.17;100.00;-15917.19;5055305;28;51136;-58
2022/11/21 08:26:19;;;;;;;;;21.00;19.50;;;;;-147.17;100.00;-15917.19;5060310;28;51151;-58
2022/11/21 08:28:44;;;;;;;;;17.00;14.25;;;;;-147.17;100.00;-15917.19;5057786;28;51678;-58
2022/11/21 08:31:10;;;;;;;;;19.75;14.75;;;;;-147.17;100.00;-15917.19;5064292;28;51315;-58
2022/11/21 08:33:35;;;;;;;;;14.75;13.00;;;;;-147.17;100.00;-15917.19;5069022;28;51353;-58
2022/11/21 08:36:05;;;;;;;;;18.50;17.50;;;;;-147.17;100.00;-15917.19;5055914;28;51777;-58
2022/11/21 08:38:31;;;;;;;;;17.00;15.25;;;;;-147.17;100.00;-15917.19;5053270;28;53878;-58
2022/11/21 08:43:40;;;;;;;;;16.25;15.25;;;;;-147.17;100.00;-15917.19;5058281;28;51158;-57
2022/11/21 08:46:05;;;;;;;;;17.25;16.25;;;;;-147.17;100.00;-15917.19;5071753;27;50939;-58
2022/11/21 08:48:30;;;;;;;;;21.00;18.50;;;;;-147.17;100.00;-15917.19;5070796;27;51107;-58
2022/11/21 08:50:56;;;;;;;;;23.75;20.00;;;;;-147.17;100.00;-15917.19;5071224;28;51135;-57
2022/11/21 08:53:21;;;;;;;;;18.75;18.25;;;;;-147.17;100.00;-15917.19;5070169;28;50921;-59
2022/11/21 08:55:47;;;;;;;;;13.00;13.00;;;;;-147.17;100.00;-15917.19;5060080;28;51315;-58
2022/11/21 08:58:12;;;;;;;;;14.75;13.50;;;;;-147.17;100.00;-15917.19;5066456;28;52484;-58
2022/11/21 09:00:37;;;;;;;;;13.25;13.25;;;;;-147.17;100.00;-15917.19;5067331;27;51061;-59
2022/11/21 09:03:04;;;;;;;;;17.25;13.25;;;;;-147.17;100.00;-15917.19;5062438;27;56074;-59
2022/11/21 09:05:29;;;;;;;;;10.75;10.25;;;;;-147.17;100.00;-15917.19;5067670;28;51309;-57
2022/11/21 09:07:56;;;;;;;;;13.75;12.50;;;;;-147.17;100.00;-15917.19;5060786;28;51238;-59
2022/11/21 09:10:22;;;;;;;;;14.00;13.25;;;;;-147.17;100.00;-15917.19;5065909;28;51071;-59
2022/11/21 09:12:47;;;;;;;;;17.75;13.75;;;;;-147.17;100.00;-15917.19;5065556;28;51054;-58
2022/11/21 09:18:03;;;;;;;;;12.75;12.00;;;;;-147.17;100.00;-15917.19;5064993;28;51333;-59
2022/11/21 09:20:38;;;;;;;;;12.25;11.00;;;;;-147.17;100.00;-15917.19;5053154;28;51102;-59
2022/11/21 09:23:07;;;;;;;;;20.50;17.25;;;;;-147.17;100.00;-15917.19;5069609;27;51157;-58
2022/11/21 09:25:33;;;;;;;;;14.00;13.00;;;;;-147.17;100.00;-15917.19;5064338;28;51088;-58
2022/11/21 09:28:03;;;;;;;;;15.50;13.00;;;;;-147.17;100.00;-15917.19;5073002;27;54121;-59
2022/11/21 09:30:29;;;;;;;;;15.50;14.00;;;;;-147.17;100.00;-15917.19;5061251;28;51174;-59
2022/11/21 09:32:59;;;;;;;;;16.00;14.25;;;;;-147.17;100.00;-15917.19;5054763;28;51261;-60
2022/11/21 09:35:25;;;;;;;;;13.00;12.00;;;;;-147.17;100.00;-15917.19;5051881;28;51041;-59
2022/11/21 09:37:50;;;;;;;;;14.25;12.50;;;;;-147.17;100.00;-15917.19;5065594;28;59971;-58
2022/11/21 09:40:16;;;;;;;;;12.25;12.00;;;;;-147.17;100.00;-15917.19;5064663;28;51025;-58
2022/11/21 09:43:13;;;;;;;;;12.25;11.25;;;;;-147.17;100.00;-15917.19;5053624;28;51123;-59
2022/11/21 09:45:58;;;;;;;;;12.00;10.75;;;;;-147.17;100.00;-15917.19;5062140;27;50992;-57
2022/11/21 09:48:33;;;;;;;;;13.25;12.00;;;;;-147.17;100.00;-15917.19;5059395;28;52006;-57
2022/11/21 09:51:04;;;;;;;;;13.25;12.00;;;;;-147.17;100.00;-15917.19;5070426;28;50974;-58
2022/11/21 09:53:35;;;;;;;;;9.00;7.25;;;;;-147.17;100.00;-15917.19;5067499;28;51155;-57
2022/11/21 09:56:10;;;;;;;;;14.75;14.75;;;;;-147.17;100.00;-15917.19;5072042;27;51124;-62
2022/11/21 09:58:50;;;;;;;;;13.00;12.75;;;;;-147.17;100.00;-15917.19;5058464;28;51203;-58
2022/11/21 10:01:16;;;;;;;;;13.75;12.00;;;;;-147.17;100.00;-15917.19;5062119;28;50964;-58
2022/11/21 10:03:47;;;;;;;;;18.75;12.75;;;;;-147.17;100.00;-15917.19;5072126;27;51094;-58
2022/11/21 10:06:21;;;;;;;;;4.25;3.75;;;;;-147.17;100.00;-15917.19;5064514;28;51315;-59
2022/11/21 10:09:05;;;;;;;;;13.75;12.50;;;;;-147.17;100.00;-15917.19;5057113;28;51997;-57
2022/11/21 10:14:51;;;;;;;;;9.50;8.00;;;;;-147.17;100.00;-15917.19;5073299;27;51690;-58
2022/11/21 10:17:57;;;;;;;;;14.00;9.75;;;;;-147.17;100.00;-15917.19;5074402;27;51180;-58
2022/11/21 10:20:53;;;;;;;;;8.50;8.50;;;;;-147.17;100.00;-15917.19;5041333;28;52044;-59
2022/11/21 10:23:28;;;;;;;;;9.75;9.00;;;;;-147.17;100.00;-15917.19;5067590;28;51031;-59
2022/11/21 10:26:02;;;;;;;;;11.75;10.25;;;;;-147.17;100.00;-15917.19;5059247;28;51281;-59
2022/11/21 10:28:43;;;;;;;;;9.50;9.00;;;;;-147.17;100.00;-15917.19;5058385;28;51005;-59
2022/11/21 10:31:12;;;;;;;;;8.50;8.00;;;;;-147.17;100.00;-15917.19;5066709;27;52714;-59
2022/11/21 10:33:40;;;;;;;;;7.00;7.00;;;;;-147.17;100.00;-15917.19;5069824;27;51594;-59
2022/11/21 10:36:35;;;;;;;;;9.75;9.75;;;;;-147.17;100.00;-15917.19;5070691;28;51292;-59
2022/11/21 10:39:14;;;;;;;;;9.25;8.25;;;;;-147.17;100.00;-15917.19;5061508;28;50938;-58
2022/11/21 10:41:50;;;;;;;;;9.75;8.75;;;;;-147.17;100.00;-15917.19;5054293;28;52323;-59
2022/11/21 10:47:26;;;;;;;;;7.00;7.00;;;;;-147.17;100.00;-15917.19;5054794;28;51049;-61
2022/11/21 10:49:59;;;;;;;;;7.00;5.00;;;;;-147.17;100.00;-15917.19;5054845;28;51101;-59
2022/11/21 10:52:30;;;;;;;;;10.00;9.00;;;;;-147.17;100.00;-15917.19;5055790;28;51388;-58
2022/11/21 10:55:08;;;;;;;;;6.50;6.00;;;;;-147.17;100.00;-15917.19;5063009;28;51043;-58
2022/11/21 10:57:45;;;;;;;;;17.00;13.75;;;;;-147.17;100.00;-15917.19;5073826;28;51083;-58
2022/11/21 11:00:11;;;;;;;;;9.50;8.50;;;;;-147.17;100.00;-15917.19;5072418;27;51338;-58
2022/11/21 11:02:37;;;;;;;;;11.75;8.50;;;;;-147.17;100.00;-15917.19;5054663;27;51614;-59
2022/11/21 11:05:24;;;;;;;;;7.25;7.25;;;;;-147.17;100.00;-15917.19;5054567;28;51179;-59
2022/11/21 11:08:08;;;;;;;;;8.75;7.50;;;;;-147.17;100.00;-15917.19;5053737;28;51006;-59
2022/11/21 11:10:42;;;;;;;;;8.75;7.25;;;;;-147.17;100.00;-15917.19;5060080;27;51355;-59
2022/11/21 11:13:34;;;;;;;;;8.25;7.50;;;;;-147.17;100.00;-15917.19;5069733;27;51091;-59
2022/11/21 11:16:08;;;;;;;;;6.50;5.25;;;;;-147.17;100.00;-15917.19;5059954;28;51118;-59